createdAt,value
2018-08-03T00:02:32.000Z,26.7
2018-08-03T00:12:32.000Z,26.5
2018-08-03T00:22:32.000Z,26.4
2018-08-03T00:32:33.000Z,26.4
2018-08-03T00:42:33.000Z,26.3
2018-08-03T00:52:33.000Z,26.1
2018-08-03T01:02:33.000Z,26
2018-08-03T01:12:33.000Z,26
2018-08-03T01:22:33.000Z,25.8
2018-08-03T01:32:33.000Z,25.8
2018-08-03T01:42:33.000Z,25.7
2018-08-03T01:52:33.000Z,25.5
2018-08-03T02:02:33.000Z,25.4
2018-08-03T02:12:33.000Z,25.4
2018-08-03T02:22:33.000Z,25.5
2018-08-03T02:32:33.000Z,25.5
2018-08-03T02:42:33.000Z,25.4
2018-08-03T03:02:33.000Z,25.3
2018-08-03T03:12:33.000Z,25.2
2018-08-03T03:22:33.000Z,25
2018-08-03T03:32:33.000Z,24.9
2018-08-03T03:42:33.000Z,24.8
2018-08-03T03:52:33.000Z,24.7
2018-08-03T04:02:33.000Z,24.7
2018-08-03T04:12:33.000Z,24.6
2018-08-03T04:22:33.000Z,24.6
2018-08-03T04:32:33.000Z,24.6
2018-08-03T04:42:33.000Z,24.6
2018-08-03T04:52:33.000Z,24.7
2018-08-03T05:02:33.000Z,24.7
2018-08-03T05:12:33.000Z,25.1
2018-08-03T05:22:33.000Z,25.5
2018-08-03T05:32:33.000Z,25.7
2018-08-03T05:42:33.000Z,25.9
2018-08-03T05:52:33.000Z,26.2
2018-08-03T06:02:33.000Z,26.4
2018-08-03T06:12:33.000Z,26.6
2018-08-03T06:22:33.000Z,26.6
2018-08-03T06:32:33.000Z,26.8
2018-08-03T06:42:33.000Z,26.9
2018-08-03T06:52:34.000Z,26.9
2018-08-03T07:02:33.000Z,27
2018-08-03T07:12:34.000Z,27.1
2018-08-03T07:22:34.000Z,27.2
2018-08-03T07:32:34.000Z,27.3
2018-08-03T07:42:34.000Z,27.3
2018-08-03T07:52:34.000Z,27.3
2018-08-03T08:02:34.000Z,27.3
2018-08-03T08:12:34.000Z,27.4
2018-08-03T08:22:34.000Z,27.5
2018-08-03T08:32:34.000Z,27.6
2018-08-03T08:42:34.000Z,27.8
2018-08-03T08:52:34.000Z,27.8
2018-08-03T09:02:34.000Z,27.7
2018-08-03T09:12:34.000Z,27.8
2018-08-03T09:22:34.000Z,27.8
2018-08-03T09:32:34.000Z,27.8
2018-08-03T09:42:34.000Z,28.1
2018-08-03T09:52:34.000Z,28.1
2018-08-03T10:02:34.000Z,28
2018-08-03T10:12:34.000Z,28
2018-08-03T10:22:34.000Z,28
2018-08-03T10:32:34.000Z,28.1
2018-08-03T10:42:34.000Z,28.1
2018-08-03T10:52:34.000Z,27.9
2018-08-03T11:02:34.000Z,27.8
2018-08-03T11:12:34.000Z,27.9
2018-08-03T11:22:34.000Z,27.9
2018-08-03T11:32:34.000Z,27.9
2018-08-03T11:42:34.000Z,27.9
2018-08-03T11:52:34.000Z,27.9
2018-08-03T12:02:34.000Z,27.9
2018-08-03T12:12:35.000Z,28.1
2018-08-03T12:22:34.000Z,28
2018-08-03T12:32:34.000Z,28
2018-08-03T12:42:34.000Z,28.1
2018-08-03T12:52:34.000Z,28.1
2018-08-03T13:02:34.000Z,28.1
2018-08-03T13:12:34.000Z,28.2
2018-08-03T13:22:34.000Z,28.1
2018-08-03T13:32:35.000Z,28
2018-08-03T13:42:34.000Z,28
2018-08-03T13:52:35.000Z,27.9
2018-08-03T14:02:35.000Z,28
2018-08-03T14:12:35.000Z,27.9
2018-08-03T14:22:35.000Z,28
2018-08-03T14:32:35.000Z,28
2018-08-03T14:42:35.000Z,28
2018-08-03T14:52:35.000Z,28
2018-08-03T15:02:35.000Z,28
2018-08-03T15:12:35.000Z,28
2018-08-03T15:22:35.000Z,28
2018-08-03T15:32:35.000Z,28.1
2018-08-03T15:42:35.000Z,28.1
2018-08-03T15:52:35.000Z,28.1
2018-08-03T16:02:35.000Z,28.1
2018-08-03T16:12:35.000Z,28.1
2018-08-03T16:22:35.000Z,28.1
2018-08-03T16:32:35.000Z,28.1
2018-08-03T16:42:35.000Z,28.1
2018-08-03T16:52:35.000Z,28.2
2018-08-03T17:02:35.000Z,28.2
2018-08-03T17:12:35.000Z,28.2
2018-08-03T17:22:35.000Z,28.1
2018-08-03T17:32:35.000Z,28.1
2018-08-03T17:42:35.000Z,28.1
2018-08-03T17:52:35.000Z,28.1
2018-08-03T18:02:35.000Z,28.1
2018-08-03T18:12:35.000Z,28.1
2018-08-03T18:22:35.000Z,28.1
2018-08-03T18:32:35.000Z,28.3
2018-08-03T18:42:35.000Z,28.1
2018-08-03T18:52:35.000Z,28.1
2018-08-03T19:02:35.000Z,28.1
2018-08-03T19:12:35.000Z,28.1
2018-08-03T19:22:35.000Z,28.2
2018-08-03T19:32:35.000Z,28.2
2018-08-03T19:42:35.000Z,28.2
2018-08-03T19:52:35.000Z,28.2
2018-08-03T20:02:36.000Z,28.3
2018-08-03T20:12:35.000Z,28.3
2018-08-03T20:22:36.000Z,28.3
2018-08-03T20:32:36.000Z,28.3
2018-08-03T20:42:36.000Z,28.3
2018-08-03T20:52:36.000Z,28.3
2018-08-03T21:02:36.000Z,28.3
2018-08-03T21:12:36.000Z,28.3
2018-08-03T21:22:36.000Z,28.3
2018-08-03T21:32:36.000Z,28.3
2018-08-03T21:42:36.000Z,28.3
2018-08-03T21:52:36.000Z,28.3
2018-08-03T22:02:36.000Z,28.2
2018-08-03T22:12:36.000Z,28.2
2018-08-03T22:22:36.000Z,28.2
2018-08-03T22:32:36.000Z,28.2
2018-08-03T22:42:36.000Z,28.2
2018-08-03T22:52:36.000Z,28.1
2018-08-03T23:02:36.000Z,28.1
2018-08-03T23:12:36.000Z,28.2
2018-08-03T23:22:36.000Z,28.1
2018-08-03T23:32:36.000Z,28.1
2018-08-03T23:42:36.000Z,28.1
2018-08-03T23:52:36.000Z,28.1
